sensor_id;sensor_type;location;lat;lon;timestamp;pressure;altitude;pressure_sealevel;temperature;humidity
39491;BME280;25175;50.140;18.990;2023-02-21T00:01:42;97939.91;;;9.46;50.28
39491;BME280;25175;50.140;18.990;2023-02-21T00:05:09;97946.75;;;9.47;50.40
39491;BME280;25175;50.140;18.990;2023-02-21T00:08:34;97935.13;;;9.43;50.35
39491;BME280;25175;50.140;18.990;2023-02-21T00:12:07;97942.81;;;9.38;50.29
39491;BME280;25175;50.140;18.990;2023-02-21T00:16:14;97934.78;;;9.33;50.56
39491;BME280;25175;50.140;18.990;2023-02-21T00:19:58;97933.59;;;9.29;50.46
39491;BME280;25175;50.140;18.990;2023-02-21T00:23:20;97932.00;;;9.28;50.64
39491;BME280;25175;50.140;18.990;2023-02-21T00:26:48;97946.91;;;9.27;50.86
39491;BME280;25175;50.140;18.990;2023-02-21T00:30:16;97947.34;;;9.24;50.67
39491;BME280;25175;50.140;18.990;2023-02-21T00:33:36;97914.91;;;8.94;50.82
39491;BME280;25175;50.140;18.990;2023-02-21T00:36:57;97939.56;;;9.11;50.87
39491;BME280;25175;50.140;18.990;2023-02-21T00:40:38;97947.75;;;9.21;50.98
39491;BME280;25175;50.140;18.990;2023-02-21T00:44:00;97940.75;;;9.15;50.95
39491;BME280;25175;50.140;18.990;2023-02-21T00:47:43;97943.81;;;9.12;51.16
39491;BME280;25175;50.140;18.990;2023-02-21T00:51:02;97936.16;;;9.11;51.43
39491;BME280;25175;50.140;18.990;2023-02-21T00:55:19;97939.78;;;9.10;51.36
39491;BME280;25175;50.140;18.990;2023-02-21T00:58:41;97930.09;;;9.10;51.44
39491;BME280;25175;50.140;18.990;2023-02-21T01:01:59;97897.97;;;8.97;51.41
39491;BME280;25175;50.140;18.990;2023-02-21T01:05:17;97861.97;;;8.68;51.46
39491;BME280;25175;50.140;18.990;2023-02-21T01:08:40;97909.75;;;8.88;51.77
39491;BME280;25175;50.140;18.990;2023-02-21T01:12:30;97919.69;;;9.04;51.94
39491;BME280;25175;50.140;18.990;2023-02-21T01:23:55;97923.47;;;9.08;51.82
39491;BME280;25175;50.140;18.990;2023-02-21T01:27:13;97910.63;;;9.06;52.30
39491;BME280;25175;50.140;18.990;2023-02-21T01:30:34;97902.22;;;8.98;52.39
39491;BME280;25175;50.140;18.990;2023-02-21T01:33:52;97903.94;;;9.10;52.36
39491;BME280;25175;50.140;18.990;2023-02-21T01:37:09;97890.06;;;9.10;52.35
39491;BME280;25175;50.140;18.990;2023-02-21T01:40:30;97781.66;;;8.44;52.48
39491;BME280;25175;50.140;18.990;2023-02-21T01:43:58;97837.06;;;8.59;52.93
39491;BME280;25175;50.140;18.990;2023-02-21T01:47:47;97885.19;;;9.13;53.70
39491;BME280;25175;50.140;18.990;2023-02-21T01:51:12;97884.75;;;9.16;53.85
39491;BME280;25175;50.140;18.990;2023-02-21T01:54:40;97876.69;;;9.18;53.89
39491;BME280;25175;50.140;18.990;2023-02-21T01:58:03;97874.25;;;9.23;54.23
39491;BME280;25175;50.140;18.990;2023-02-21T02:02:09;97889.00;;;9.17;53.99
39491;BME280;25175;50.140;18.990;2023-02-21T02:05:29;97871.22;;;9.26;54.02
39491;BME280;25175;50.140;18.990;2023-02-21T02:08:52;97877.22;;;9.26;53.67
39491;BME280;25175;50.140;18.990;2023-02-21T02:12:45;97874.19;;;9.29;53.57
39491;BME280;25175;50.140;18.990;2023-02-21T02:16:19;97841.06;;;9.17;53.55
39491;BME280;25175;50.140;18.990;2023-02-21T02:20:01;97866.72;;;9.33;54.03
39491;BME280;25175;50.140;18.990;2023-02-21T02:24:12;97866.75;;;9.26;54.69
39491;BME280;25175;50.140;18.990;2023-02-21T02:27:43;97859.59;;;9.15;54.96
39491;BME280;25175;50.140;18.990;2023-02-21T02:31:27;97867.78;;;9.25;55.37
39491;BME280;25175;50.140;18.990;2023-02-21T02:35:09;97886.75;;;9.21;56.06
39491;BME280;25175;50.140;18.990;2023-02-21T02:38:35;97878.53;;;9.17;57.08
39491;BME280;25175;50.140;18.990;2023-02-21T02:42:25;97882.03;;;9.05;58.48
39491;BME280;25175;50.140;18.990;2023-02-21T02:49:27;97879.19;;;8.82;60.36
39491;BME280;25175;50.140;18.990;2023-02-21T02:52:49;97883.63;;;8.75;60.87
39491;BME280;25175;50.140;18.990;2023-02-21T02:56:11;97884.47;;;8.69;61.41
39491;BME280;25175;50.140;18.990;2023-02-21T02:59:31;97882.50;;;8.64;61.82
39491;BME280;25175;50.140;18.990;2023-02-21T03:03:01;97885.56;;;8.55;62.48
39491;BME280;25175;50.140;18.990;2023-02-21T03:07:05;97884.38;;;8.44;63.18
39491;BME280;25175;50.140;18.990;2023-02-21T03:10:39;97896.50;;;8.39;63.71
39491;BME280;25175;50.140;18.990;2023-02-21T03:14:07;97569.50;;;6.35;63.85
39491;BME280;25175;50.140;18.990;2023-02-21T03:17:25;97886.25;;;8.37;64.26
39491;BME280;25175;50.140;18.990;2023-02-21T03:20:39;97861.78;;;8.19;64.69
39491;BME280;25175;50.140;18.990;2023-02-21T03:23:53;97886.88;;;8.26;65.16
39491;BME280;25175;50.140;18.990;2023-02-21T03:27:25;97879.25;;;8.25;65.51
39491;BME280;25175;50.140;18.990;2023-02-21T03:31:08;97878.69;;;8.16;65.95
39491;BME280;25175;50.140;18.990;2023-02-21T03:34:17;97880.72;;;8.14;66.08
39491;BME280;25175;50.140;18.990;2023-02-21T03:37:33;97875.69;;;8.13;66.39
39491;BME280;25175;50.140;18.990;2023-02-21T03:44:34;97884.59;;;7.99;67.55
39491;BME280;25175;50.140;18.990;2023-02-21T03:47:50;97880.97;;;7.93;67.94
39491;BME280;25175;50.140;18.990;2023-02-21T03:51:28;97863.56;;;7.74;67.92
39491;BME280;25175;50.140;18.990;2023-02-21T03:54:59;97898.47;;;7.86;68.50
39491;BME280;25175;50.140;18.990;2023-02-21T03:58:15;97897.09;;;7.84;68.81
39491;BME280;25175;50.140;18.990;2023-02-21T04:01:34;97897.69;;;7.79;68.85
39491;BME280;25175;50.140;18.990;2023-02-21T04:04:47;97895.69;;;7.75;69.24
39491;BME280;25175;50.140;18.990;2023-02-21T04:08:01;97784.94;;;7.12;69.34
39491;BME280;25175;50.140;18.990;2023-02-21T04:11:10;97876.22;;;7.64;69.25
39491;BME280;25175;50.140;18.990;2023-02-21T04:14:18;97885.66;;;7.72;69.51
39491;BME280;25175;50.140;18.990;2023-02-21T04:17:31;97882.81;;;7.73;69.58
39491;BME280;25175;50.140;18.990;2023-02-21T04:20:38;97897.09;;;7.71;69.58
39491;BME280;25175;50.140;18.990;2023-02-21T04:23:51;97899.69;;;7.71;69.60
39491;BME280;25175;50.140;18.990;2023-02-21T04:27:28;97891.09;;;7.70;69.78
39491;BME280;25175;50.140;18.990;2023-02-21T04:30:44;97893.69;;;7.70;69.84
39491;BME280;25175;50.140;18.990;2023-02-21T04:34:10;97892.69;;;7.71;69.73
39491;BME280;25175;50.140;18.990;2023-02-21T04:37:42;97571.91;;;5.78;69.34
39491;BME280;25175;50.140;18.990;2023-02-21T04:40:56;97876.44;;;7.63;69.64
39491;BME280;25175;50.140;18.990;2023-02-21T04:44:03;97483.19;;;5.27;69.33
39491;BME280;25175;50.140;18.990;2023-02-21T04:47:20;97879.44;;;7.73;69.54
39491;BME280;25175;50.140;18.990;2023-02-21T04:50:35;97882.44;;;7.70;69.69
39491;BME280;25175;50.140;18.990;2023-02-21T04:57:58;97882.66;;;7.68;69.48
39491;BME280;25175;50.140;18.990;2023-02-21T05:01:15;97878.66;;;7.66;69.41
39491;BME280;25175;50.140;18.990;2023-02-21T05:05:02;97888.47;;;7.64;69.64
39491;BME280;25175;50.140;18.990;2023-02-21T05:08:15;97895.53;;;7.63;69.54
39491;BME280;25175;50.140;18.990;2023-02-21T05:11:22;97899.72;;;7.64;69.35
39491;BME280;25175;50.140;18.990;2023-02-21T05:18:34;97895.53;;;7.63;69.13
39491;BME280;25175;50.140;18.990;2023-02-21T05:26:16;97894.91;;;7.61;69.42
39491;BME280;25175;50.140;18.990;2023-02-21T05:29:24;97907.97;;;7.61;69.17
39491;BME280;25175;50.140;18.990;2023-02-21T05:32:39;97868.03;;;7.35;69.21
39491;BME280;25175;50.140;18.990;2023-02-21T05:35:58;97899.16;;;7.56;69.31
39491;BME280;25175;50.140;18.990;2023-02-21T05:39:07;97900.16;;;7.55;69.45
39491;BME280;25175;50.140;18.990;2023-02-21T05:42:48;97900.16;;;7.55;69.66
39491;BME280;25175;50.140;18.990;2023-02-21T05:45:53;97911.78;;;7.46;69.96
39491;BME280;25175;50.140;18.990;2023-02-21T05:49:09;97908.78;;;7.36;70.34
39491;BME280;25175;50.140;18.990;2023-02-21T05:52:19;97913.81;;;7.31;70.70
39491;BME280;25175;50.140;18.990;2023-02-21T05:55:26;97895.75;;;7.23;71.24
39491;BME280;25175;50.140;18.990;2023-02-21T05:58:36;97900.97;;;7.23;71.12
39491;BME280;25175;50.140;18.990;2023-02-21T06:01:50;97906.38;;;7.21;71.12
39491;BME280;25175;50.140;18.990;2023-02-21T06:04:58;97910.00;;;7.20;71.36
39491;BME280;25175;50.140;18.990;2023-02-21T06:08:05;97920.25;;;7.22;71.61
39491;BME280;25175;50.140;18.990;2023-02-21T06:11:11;97911.41;;;7.23;71.46
39491;BME280;25175;50.140;18.990;2023-02-21T06:14:20;97914.00;;;7.23;71.56
39491;BME280;25175;50.140;18.990;2023-02-21T06:17:32;97908.16;;;7.21;71.72
39491;BME280;25175;50.140;18.990;2023-02-21T06:20:44;97915.41;;;7.19;71.72
39491;BME280;25175;50.140;18.990;2023-02-21T06:23:55;97896.50;;;7.10;71.80
39491;BME280;25175;50.140;18.990;2023-02-21T06:27:09;97919.00;;;7.18;71.78
39491;BME280;25175;50.140;18.990;2023-02-21T06:30:19;97918.19;;;7.17;71.87
39491;BME280;25175;50.140;18.990;2023-02-21T06:33:26;97934.66;;;7.18;72.00
39491;BME280;25175;50.140;18.990;2023-02-21T06:36:32;97936.28;;;7.19;72.05
39491;BME280;25175;50.140;18.990;2023-02-21T06:39:41;97940.66;;;7.18;72.08
39491;BME280;25175;50.140;18.990;2023-02-21T06:42:59;97936.69;;;7.22;72.17
39491;BME280;25175;50.140;18.990;2023-02-21T06:46:14;97932.69;;;7.26;71.85
39491;BME280;25175;50.140;18.990;2023-02-21T06:49:21;97933.88;;;7.30;72.01
39491;BME280;25175;50.140;18.990;2023-02-21T06:52:36;97935.69;;;7.36;71.92
39491;BME280;25175;50.140;18.990;2023-02-21T07:09:22;97944.53;;;7.48;71.72
39491;BME280;25175;50.140;18.990;2023-02-21T07:16:06;97957.97;;;7.52;71.78
39491;BME280;25175;50.140;18.990;2023-02-21T07:19:13;97959.78;;;7.51;71.90
39491;BME280;25175;50.140;18.990;2023-02-21T07:25:56;97963.38;;;7.50;72.00
39491;BME280;25175;50.140;18.990;2023-02-21T07:29:23;97971.22;;;7.50;71.74
39491;BME280;25175;50.140;18.990;2023-02-21T07:32:32;97966.41;;;7.54;72.16
39491;BME280;25175;50.140;18.990;2023-02-21T07:35:39;97961.19;;;7.60;72.04
39491;BME280;25175;50.140;18.990;2023-02-21T07:38:46;97966.81;;;7.64;71.86
39491;BME280;25175;50.140;18.990;2023-02-21T07:42:01;97972.41;;;7.67;71.64
39491;BME280;25175;50.140;18.990;2023-02-21T07:45:12;97965.19;;;7.76;71.68
39491;BME280;25175;50.140;18.990;2023-02-21T07:48:24;97955.53;;;7.70;71.47
39491;BME280;25175;50.140;18.990;2023-02-21T07:51:31;97982.88;;;7.80;71.47
39491;BME280;25175;50.140;18.990;2023-02-21T07:54:40;97980.66;;;7.84;71.36
39491;BME280;25175;50.140;18.990;2023-02-21T07:57:48;97970.81;;;7.86;70.71
39491;BME280;25175;50.140;18.990;2023-02-21T08:00:58;97969.00;;;7.80;70.74
39491;BME280;25175;50.140;18.990;2023-02-21T08:04:42;97975.00;;;7.93;70.78
39491;BME280;25175;50.140;18.990;2023-02-21T08:07:49;97974.63;;;7.96;70.77
39491;BME280;25175;50.140;18.990;2023-02-21T08:10:59;97971.38;;;8.01;70.53
39491;BME280;25175;50.140;18.990;2023-02-21T08:18:00;97970.38;;;8.08;70.33
39491;BME280;25175;50.140;18.990;2023-02-21T08:21:08;97980.22;;;8.13;70.34
39491;BME280;25175;50.140;18.990;2023-02-21T08:24:18;97977.59;;;8.13;70.01
39491;BME280;25175;50.140;18.990;2023-02-21T08:27:24;97980.41;;;8.18;69.92
39491;BME280;25175;50.140;18.990;2023-02-21T08:30:33;97976.75;;;8.25;70.01
39491;BME280;25175;50.140;18.990;2023-02-21T08:34:16;97980.34;;;8.31;69.57
39491;BME280;25175;50.140;18.990;2023-02-21T08:37:31;97976.72;;;8.38;69.61
39491;BME280;25175;50.140;18.990;2023-02-21T08:40:43;97980.91;;;8.46;69.58
39491;BME280;25175;50.140;18.990;2023-02-21T08:43:54;97912.06;;;8.08;69.00
39491;BME280;25175;50.140;18.990;2023-02-21T08:47:06;97973.84;;;8.59;68.66
39491;BME280;25175;50.140;18.990;2023-02-21T08:50:12;97972.63;;;8.68;68.63
39491;BME280;25175;50.140;18.990;2023-02-21T08:53:29;97879.91;;;8.14;68.23
39491;BME280;25175;50.140;18.990;2023-02-21T08:56:35;97980.19;;;8.83;67.64
39491;BME280;25175;50.140;18.990;2023-02-21T08:59:43;97918.38;;;8.44;67.08
39491;BME280;25175;50.140;18.990;2023-02-21T09:02:52;97984.59;;;8.89;66.85
39491;BME280;25175;50.140;18.990;2023-02-21T09:06:05;97988.44;;;8.80;66.47
39491;BME280;25175;50.140;18.990;2023-02-21T09:09:11;98004.94;;;8.87;66.25
39491;BME280;25175;50.140;18.990;2023-02-21T09:12:17;98005.53;;;8.89;65.96
39491;BME280;25175;50.140;18.990;2023-02-21T09:15:28;98011.34;;;8.91;65.94
39491;BME280;25175;50.140;18.990;2023-02-21T09:18:37;98004.28;;;8.98;65.58
39491;BME280;25175;50.140;18.990;2023-02-21T09:21:47;98009.06;;;9.01;65.24
39491;BME280;25175;50.140;18.990;2023-02-21T09:25:11;98005.81;;;9.05;65.02
39491;BME280;25175;50.140;18.990;2023-02-21T09:28:17;98011.84;;;9.12;65.07
39491;BME280;25175;50.140;18.990;2023-02-21T09:31:28;98007.38;;;9.19;64.99
39491;BME280;25175;50.140;18.990;2023-02-21T09:34:37;98007.91;;;9.28;64.23
39491;BME280;25175;50.140;18.990;2023-02-21T09:37:56;98016.34;;;9.30;64.34
39491;BME280;25175;50.140;18.990;2023-02-21T09:41:15;98023.44;;;9.29;64.54
39491;BME280;25175;50.140;18.990;2023-02-21T09:44:25;98017.56;;;9.34;64.94
39491;BME280;25175;50.140;18.990;2023-02-21T09:47:43;98025.78;;;9.37;64.44
39491;BME280;25175;50.140;18.990;2023-02-21T09:51:08;98029.22;;;9.38;63.91
39491;BME280;25175;50.140;18.990;2023-02-21T09:54:23;98043.50;;;9.42;63.98
39491;BME280;25175;50.140;18.990;2023-02-21T09:57:36;98044.66;;;9.46;63.68
39491;BME280;25175;50.140;18.990;2023-02-21T10:00:42;98029.31;;;9.49;64.36
39491;BME280;25175;50.140;18.990;2023-02-21T10:03:58;98027.72;;;9.48;63.49
39491;BME280;25175;50.140;18.990;2023-02-21T10:07:24;98029.94;;;9.51;63.76
39491;BME280;25175;50.140;18.990;2023-02-21T10:10:43;98026.88;;;9.54;63.64
39491;BME280;25175;50.140;18.990;2023-02-21T10:13:58;97944.00;;;9.11;63.00
39491;BME280;25175;50.140;18.990;2023-02-21T10:17:20;98033.09;;;9.60;62.44
39491;BME280;25175;50.140;18.990;2023-02-21T10:21:08;98019.22;;;9.28;62.21
39491;BME280;25175;50.140;18.990;2023-02-21T10:24:27;98058.09;;;9.56;62.39
39491;BME280;25175;50.140;18.990;2023-02-21T10:27:33;98028.41;;;9.68;62.81
39491;BME280;25175;50.140;18.990;2023-02-21T10:30:41;98028.59;;;9.67;62.60
39491;BME280;25175;50.140;18.990;2023-02-21T10:33:56;98036.47;;;9.67;62.75
39491;BME280;25175;50.140;18.990;2023-02-21T10:37:23;98032.41;;;9.71;63.71
39491;BME280;25175;50.140;18.990;2023-02-21T10:40:57;98042.28;;;9.69;63.17
39491;BME280;25175;50.140;18.990;2023-02-21T10:44:23;98031.81;;;9.69;63.83
39491;BME280;25175;50.140;18.990;2023-02-21T10:48:18;98026.31;;;9.77;63.28
39491;BME280;25175;50.140;18.990;2023-02-21T10:51:33;98027.69;;;9.86;62.51
39491;BME280;25175;50.140;18.990;2023-02-21T10:55:01;98042.56;;;9.92;62.35
39491;BME280;25175;50.140;18.990;2023-02-21T10:58:27;98033.75;;;10.04;62.25
39491;BME280;25175;50.140;18.990;2023-02-21T11:01:42;98032.19;;;10.21;61.44
39491;BME280;25175;50.140;18.990;2023-02-21T11:04:53;98039.06;;;10.40;60.44
39491;BME280;25175;50.140;18.990;2023-02-21T11:08:08;98042.16;;;10.55;60.04
39491;BME280;25175;50.140;18.990;2023-02-21T11:11:34;98038.34;;;10.69;58.60
39491;BME280;25175;50.140;18.990;2023-02-21T11:18:38;98021.66;;;10.64;57.57
39491;BME280;25175;50.140;18.990;2023-02-21T11:21:54;98032.09;;;10.88;58.42
39491;BME280;25175;50.140;18.990;2023-02-21T11:25:28;98056.28;;;10.90;57.71
39491;BME280;25175;50.140;18.990;2023-02-21T11:28:52;98033.41;;;10.79;57.40
39491;BME280;25175;50.140;18.990;2023-02-21T11:32:18;98050.53;;;10.82;57.46
39491;BME280;25175;50.140;18.990;2023-02-21T11:35:34;98031.50;;;10.68;57.73
39491;BME280;25175;50.140;18.990;2023-02-21T11:38:59;98054.19;;;10.63;57.85
39491;BME280;25175;50.140;18.990;2023-02-21T11:42:27;98052.41;;;10.57;58.54
39491;BME280;25175;50.140;18.990;2023-02-21T11:45:43;98052.91;;;10.65;59.52
39491;BME280;25175;50.140;18.990;2023-02-21T11:49:19;98062.31;;;10.73;59.12
39491;BME280;25175;50.140;18.990;2023-02-21T11:52:45;98061.38;;;10.67;57.98
39491;BME280;25175;50.140;18.990;2023-02-21T11:56:33;98066.69;;;10.61;57.70
39491;BME280;25175;50.140;18.990;2023-02-21T11:59:52;98074.06;;;10.52;58.07
39491;BME280;25175;50.140;18.990;2023-02-21T12:07:38;98051.69;;;10.50;58.79
39491;BME280;25175;50.140;18.990;2023-02-21T12:15:46;98057.16;;;10.66;58.41
39491;BME280;25175;50.140;18.990;2023-02-21T12:19:24;98050.59;;;10.75;56.31
39491;BME280;25175;50.140;18.990;2023-02-21T12:23:06;98055.91;;;10.87;54.96
39491;BME280;25175;50.140;18.990;2023-02-21T12:26:46;98043.38;;;10.89;55.21
39491;BME280;25175;50.140;18.990;2023-02-21T12:30:45;98048.03;;;10.87;55.06
39491;BME280;25175;50.140;18.990;2023-02-21T12:34:21;98047.91;;;10.82;55.35
39491;BME280;25175;50.140;18.990;2023-02-21T12:37:46;98052.44;;;10.75;55.21
39491;BME280;25175;50.140;18.990;2023-02-21T12:41:20;98049.44;;;10.71;56.04
39491;BME280;25175;50.140;18.990;2023-02-21T12:44:56;98050.44;;;10.70;56.41
39491;BME280;25175;50.140;18.990;2023-02-21T12:48:17;98051.69;;;10.68;57.01
39491;BME280;25175;50.140;18.990;2023-02-21T12:51:38;98066.69;;;10.61;56.97
39491;BME280;25175;50.140;18.990;2023-02-21T12:55:26;98063.56;;;10.52;58.14
39491;BME280;25175;50.140;18.990;2023-02-21T13:02:35;98069.72;;;10.22;58.93
39491;BME280;25175;50.140;18.990;2023-02-21T13:05:54;98089.41;;;10.06;59.86
39491;BME280;25175;50.140;18.990;2023-02-21T13:09:25;98081.88;;;9.92;61.37
39491;BME280;25175;50.140;18.990;2023-02-21T13:12:44;98079.94;;;9.81;62.77
39491;BME280;25175;50.140;18.990;2023-02-21T13:16:00;98081.56;;;9.69;62.65
39491;BME280;25175;50.140;18.990;2023-02-21T13:19:11;98038.00;;;9.50;62.27
39491;BME280;25175;50.140;18.990;2023-02-21T13:30:44;98055.34;;;9.75;62.92
39491;BME280;25175;50.140;18.990;2023-02-21T13:34:00;98055.13;;;9.83;61.96
39491;BME280;25175;50.140;18.990;2023-02-21T13:37:18;98061.75;;;9.86;61.91
39491;BME280;25175;50.140;18.990;2023-02-21T13:40:50;98056.94;;;9.83;61.01
39491;BME280;25175;50.140;18.990;2023-02-21T13:44:16;98058.53;;;9.77;60.62
39491;BME280;25175;50.140;18.990;2023-02-21T13:51:46;98038.16;;;9.55;61.34
39491;BME280;25175;50.140;18.990;2023-02-21T13:55:21;98059.56;;;9.76;61.89
39491;BME280;25175;50.140;18.990;2023-02-21T13:58:36;98076.31;;;9.75;61.76
39491;BME280;25175;50.140;18.990;2023-02-21T14:01:51;98071.53;;;9.66;62.42
39491;BME280;25175;50.140;18.990;2023-02-21T14:09:42;98036.59;;;9.47;62.17
39491;BME280;25175;50.140;18.990;2023-02-21T14:13:00;98081.56;;;9.69;61.95
39491;BME280;25175;50.140;18.990;2023-02-21T14:16:18;98072.44;;;9.78;61.98
39491;BME280;25175;50.140;18.990;2023-02-21T14:19:47;98050.13;;;9.69;62.01
39491;BME280;25175;50.140;18.990;2023-02-21T14:23:16;98076.19;;;9.95;61.02
39491;BME280;25175;50.140;18.990;2023-02-21T14:26:48;98071.69;;;10.02;60.93
39491;BME280;25175;50.140;18.990;2023-02-21T14:30:29;98084.94;;;10.07;60.94
39491;BME280;25175;50.140;18.990;2023-02-21T14:33:56;98072.63;;;10.14;60.39
39491;BME280;25175;50.140;18.990;2023-02-21T14:37:23;98076.31;;;10.06;60.49
39491;BME280;25175;50.140;18.990;2023-02-21T14:44:47;98078.47;;;10.09;59.88
39491;BME280;25175;50.140;18.990;2023-02-21T14:48:30;98082.50;;;10.12;59.97
39491;BME280;25175;50.140;18.990;2023-02-21T14:52:27;98084.94;;;10.07;58.30
39491;BME280;25175;50.140;18.990;2023-02-21T14:56:31;98093.25;;;10.04;58.98
39491;BME280;25175;50.140;18.990;2023-02-21T15:00:56;98090.19;;;10.07;59.00
39491;BME280;25175;50.140;18.990;2023-02-21T15:04:17;98048.06;;;9.77;58.77
39491;BME280;25175;50.140;18.990;2023-02-21T15:07:50;98105.50;;;10.10;58.50
39491;BME280;25175;50.140;18.990;2023-02-21T15:11:22;98104.53;;;10.04;57.99
39491;BME280;25175;50.140;18.990;2023-02-21T15:14:40;97745.88;;;7.69;58.30
39491;BME280;25175;50.140;18.990;2023-02-21T15:18:04;98084.72;;;9.84;58.66
39491;BME280;25175;50.140;18.990;2023-02-21T15:21:19;98112.03;;;10.01;59.09
39491;BME280;25175;50.140;18.990;2023-02-21T15:28:23;98115.63;;;10.06;59.52
39491;BME280;25175;50.140;18.990;2023-02-21T15:31:34;98076.28;;;9.82;59.38
39491;BME280;25175;50.140;18.990;2023-02-21T15:34:46;97880.09;;;8.63;59.02
39491;BME280;25175;50.140;18.990;2023-02-21T15:38:29;98123.84;;;10.10;59.13
39491;BME280;25175;50.140;18.990;2023-02-21T15:41:44;97761.84;;;7.86;58.25
39491;BME280;25175;50.140;18.990;2023-02-21T15:45:35;98128.13;;;10.04;58.15
39491;BME280;25175;50.140;18.990;2023-02-21T15:48:49;98127.16;;;9.99;58.11
39491;BME280;25175;50.140;18.990;2023-02-21T15:51:59;98127.91;;;9.75;58.06
39491;BME280;25175;50.140;18.990;2023-02-21T15:55:38;98122.81;;;9.86;58.20
39491;BME280;25175;50.140;18.990;2023-02-21T15:59:05;98128.69;;;9.82;58.07
39491;BME280;25175;50.140;18.990;2023-02-21T16:02:21;98131.69;;;9.79;58.21
39491;BME280;25175;50.140;18.990;2023-02-21T16:05:29;98138.16;;;9.76;58.11
39491;BME280;25175;50.140;18.990;2023-02-21T16:08:35;98141.41;;;9.72;57.92
39491;BME280;25175;50.140;18.990;2023-02-21T16:11:48;98138.81;;;9.65;57.97
39491;BME280;25175;50.140;18.990;2023-02-21T16:15:01;98153.16;;;9.63;58.04
39491;BME280;25175;50.140;18.990;2023-02-21T16:18:16;98160.22;;;9.62;58.20
39491;BME280;25175;50.140;18.990;2023-02-21T16:21:26;98154.38;;;9.60;58.42
39491;BME280;25175;50.140;18.990;2023-02-21T16:24:40;98159.22;;;9.57;58.42
39491;BME280;25175;50.140;18.990;2023-02-21T16:27:53;98158.66;;;9.55;58.50
39491;BME280;25175;50.140;18.990;2023-02-21T16:31:06;98150.03;;;9.48;58.64
39491;BME280;25175;50.140;18.990;2023-02-21T16:34:21;98166.34;;;9.43;58.82
39491;BME280;25175;50.140;18.990;2023-02-21T16:37:30;98164.34;;;9.39;58.98
39491;BME280;25175;50.140;18.990;2023-02-21T16:40:53;98163.97;;;9.35;59.27
39491;BME280;25175;50.140;18.990;2023-02-21T16:44:13;98168.22;;;9.30;59.23
39491;BME280;25175;50.140;18.990;2023-02-21T16:47:40;98167.03;;;9.26;59.47
39491;BME280;25175;50.140;18.990;2023-02-21T16:50:51;98186.53;;;9.30;59.38
39491;BME280;25175;50.140;18.990;2023-02-21T16:54:03;98187.75;;;9.27;59.64
39491;BME280;25175;50.140;18.990;2023-02-21T16:57:33;98188.56;;;9.28;59.69
39491;BME280;25175;50.140;18.990;2023-02-21T17:00:48;98187.97;;;9.26;59.65
39491;BME280;25175;50.140;18.990;2023-02-21T17:08:19;98205.09;;;9.15;59.68
39491;BME280;25175;50.140;18.990;2023-02-21T17:11:43;98189.63;;;9.07;60.00
39491;BME280;25175;50.140;18.990;2023-02-21T17:22:10;98186.84;;;8.96;59.95
39491;BME280;25175;50.140;18.990;2023-02-21T17:25:28;98207.97;;;9.07;60.06
39491;BME280;25175;50.140;18.990;2023-02-21T17:29:05;98230.53;;;8.95;60.30
39491;BME280;25175;50.140;18.990;2023-02-21T17:32:16;98228.69;;;9.02;60.35
39491;BME280;25175;50.140;18.990;2023-02-21T17:35:22;98216.81;;;9.00;60.54
39491;BME280;25175;50.140;18.990;2023-02-21T17:38:42;98225.06;;;8.97;60.83
39491;BME280;25175;50.140;18.990;2023-02-21T17:45:30;98223.28;;;8.91;60.84
39491;BME280;25175;50.140;18.990;2023-02-21T17:48:43;98239.16;;;8.89;60.93
39491;BME280;25175;50.140;18.990;2023-02-21T17:55:33;98241.38;;;8.92;61.00
39491;BME280;25175;50.140;18.990;2023-02-21T17:59:27;98235.34;;;8.92;61.07
39491;BME280;25175;50.140;18.990;2023-02-21T18:02:38;98235.34;;;8.92;61.23
39491;BME280;25175;50.140;18.990;2023-02-21T18:05:44;98226.09;;;8.89;61.13
39491;BME280;25175;50.140;18.990;2023-02-21T18:08:59;98231.53;;;8.88;61.03
39491;BME280;25175;50.140;18.990;2023-02-21T18:12:31;98233.53;;;8.86;60.72
39491;BME280;25175;50.140;18.990;2023-02-21T18:15:38;98242.22;;;8.86;60.74
39491;BME280;25175;50.140;18.990;2023-02-21T18:18:53;98240.59;;;8.85;60.78
39491;BME280;25175;50.140;18.990;2023-02-21T18:21:59;98228.91;;;8.75;60.70
39491;BME280;25175;50.140;18.990;2023-02-21T18:25:06;98242.41;;;8.85;60.74
39491;BME280;25175;50.140;18.990;2023-02-21T18:28:24;97899.22;;;6.63;60.37
39491;BME280;25175;50.140;18.990;2023-02-21T18:31:32;98252.06;;;8.84;60.67
39491;BME280;25175;50.140;18.990;2023-02-21T18:38:59;98298.16;;;8.79;60.87
39491;BME280;25175;50.140;18.990;2023-02-21T18:42:11;98263.13;;;8.80;61.11
39491;BME280;25175;50.140;18.990;2023-02-21T18:49:41;98262.53;;;8.78;61.22
39491;BME280;25175;50.140;18.990;2023-02-21T18:52:46;98263.53;;;8.77;61.24
39491;BME280;25175;50.140;18.990;2023-02-21T18:55:53;98261.94;;;8.76;61.29
39491;BME280;25175;50.140;18.990;2023-02-21T18:58:59;98241.00;;;8.56;61.24
39491;BME280;25175;50.140;18.990;2023-02-21T19:02:33;98263.94;;;8.67;61.31
39491;BME280;25175;50.140;18.990;2023-02-21T19:09:23;98297.16;;;8.67;61.25
39491;BME280;25175;50.140;18.990;2023-02-21T19:12:52;98297.53;;;8.64;61.35
39491;BME280;25175;50.140;18.990;2023-02-21T19:16:38;98302.97;;;8.62;61.76
39491;BME280;25175;50.140;18.990;2023-02-21T19:24:46;98323.63;;;8.38;57.99
39491;BME280;25175;50.140;18.990;2023-02-21T19:28:09;98330.63;;;8.31;57.43
39491;BME280;25175;50.140;18.990;2023-02-21T19:31:39;98330.63;;;8.24;56.72
39491;BME280;25175;50.140;18.990;2023-02-21T19:35:05;98331.81;;;8.22;56.70
39491;BME280;25175;50.140;18.990;2023-02-21T19:38:16;98331.34;;;8.05;55.58
39491;BME280;25175;50.140;18.990;2023-02-21T19:41:50;98338.63;;;8.10;55.68
39491;BME280;25175;50.140;18.990;2023-02-21T19:45:22;98340.59;;;8.08;55.41
39491;BME280;25175;50.140;18.990;2023-02-21T19:48:53;98341.97;;;7.97;55.56
39491;BME280;25175;50.140;18.990;2023-02-21T19:52:12;98362.09;;;8.03;55.72